sensor_id;sensor_type;location;lat;lon;timestamp;P1;durP1;ratioP1;P2;durP2;ratioP2
22557;SDS011;11445;53.816;8.902;2023-05-10T00:02:21;5.28;;;2.20;;
22557;SDS011;11445;53.816;8.902;2023-05-10T00:04:48;12.10;;;2.33;;
22557;SDS011;11445;53.816;8.902;2023-05-10T00:07:16;6.68;;;2.50;;
22557;SDS011;11445;53.816;8.902;2023-05-10T00:09:43;5.40;;;2.28;;
22557;SDS011;11445;53.816;8.902;2023-05-10T00:12:11;9.40;;;2.42;;
22557;SDS011;11445;53.816;8.902;2023-05-10T00:14:38;3.65;;;2.28;;
22557;SDS011;11445;53.816;8.902;2023-05-10T00:17:05;5.25;;;2.25;;
22557;SDS011;11445;53.816;8.902;2023-05-10T00:19:32;2.72;;;1.90;;
22557;SDS011;11445;53.816;8.902;2023-05-10T00:21:59;5.47;;;2.22;;
22557;SDS011;11445;53.816;8.902;2023-05-10T00:24:28;6.40;;;2.35;;
22557;SDS011;11445;53.816;8.902;2023-05-10T00:26:55;2.83;;;2.03;;
22557;SDS011;11445;53.816;8.902;2023-05-10T00:29:22;3.05;;;2.38;;
22557;SDS011;11445;53.816;8.902;2023-05-10T00:31:49;7.85;;;2.75;;
22557;SDS011;11445;53.816;8.902;2023-05-10T00:34:16;5.00;;;2.47;;
22557;SDS011;11445;53.816;8.902;2023-05-10T00:36:43;2.88;;;2.13;;
22557;SDS011;11445;53.816;8.902;2023-05-10T00:39:10;4.95;;;2.47;;
22557;SDS011;11445;53.816;8.902;2023-05-10T00:41:39;5.88;;;2.50;;
22557;SDS011;11445;53.816;8.902;2023-05-10T00:44:06;6.93;;;2.60;;
22557;SDS011;11445;53.816;8.902;2023-05-10T00:46:33;6.55;;;2.65;;
22557;SDS011;11445;53.816;8.902;2023-05-10T00:49:01;6.65;;;2.42;;
22557;SDS011;11445;53.816;8.902;2023-05-10T00:51:28;6.07;;;2.20;;
22557;SDS011;11445;53.816;8.902;2023-05-10T00:53:56;5.15;;;2.50;;
22557;SDS011;11445;53.816;8.902;2023-05-10T00:56:23;2.85;;;2.50;;
22557;SDS011;11445;53.816;8.902;2023-05-10T00:58:52;4.97;;;2.60;;
22557;SDS011;11445;53.816;8.902;2023-05-10T01:01:19;3.40;;;2.42;;
22557;SDS011;11445;53.816;8.902;2023-05-10T01:03:46;4.85;;;2.60;;
22557;SDS011;11445;53.816;8.902;2023-05-10T01:06:14;8.93;;;2.97;;
22557;SDS011;11445;53.816;8.902;2023-05-10T01:08:41;6.15;;;2.65;;
22557;SDS011;11445;53.816;8.902;2023-05-10T01:11:08;4.93;;;2.80;;
22557;SDS011;11445;53.816;8.902;2023-05-10T01:13:36;5.18;;;2.50;;
22557;SDS011;11445;53.816;8.902;2023-05-10T01:16:07;4.28;;;2.83;;
22557;SDS011;11445;53.816;8.902;2023-05-10T01:18:34;2.50;;;2.30;;
22557;SDS011;11445;53.816;8.902;2023-05-10T01:21:08;5.20;;;2.70;;
22557;SDS011;11445;53.816;8.902;2023-05-10T01:23:45;2.72;;;2.50;;
22557;SDS011;11445;53.816;8.902;2023-05-10T01:26:47;8.10;;;2.45;;
22557;SDS011;11445;53.816;8.902;2023-05-10T01:32:26;1.98;;;1.77;;
22557;SDS011;11445;53.816;8.902;2023-05-10T01:34:59;2.42;;;1.70;;
22557;SDS011;11445;53.816;8.902;2023-05-10T01:37:31;7.80;;;3.40;;
22557;SDS011;11445;53.816;8.902;2023-05-10T01:40:06;6.80;;;3.22;;
22557;SDS011;11445;53.816;8.902;2023-05-10T01:42:40;6.65;;;2.75;;
22557;SDS011;11445;53.816;8.902;2023-05-10T01:47:44;3.22;;;2.85;;
22557;SDS011;11445;53.816;8.902;2023-05-10T01:50:18;3.67;;;2.70;;
22557;SDS011;11445;53.816;8.902;2023-05-10T01:52:53;5.22;;;2.88;;
22557;SDS011;11445;53.816;8.902;2023-05-10T01:55:23;5.85;;;3.20;;
22557;SDS011;11445;53.816;8.902;2023-05-10T01:57:52;3.53;;;3.20;;
22557;SDS011;11445;53.816;8.902;2023-05-10T02:00:24;4.68;;;2.95;;
22557;SDS011;11445;53.816;8.902;2023-05-10T02:02:53;3.38;;;3.08;;
22557;SDS011;11445;53.816;8.902;2023-05-10T02:05:21;4.00;;;3.10;;
22557;SDS011;11445;53.816;8.902;2023-05-10T02:07:49;5.95;;;3.05;;
22557;SDS011;11445;53.816;8.902;2023-05-10T02:10:18;8.77;;;3.22;;
22557;SDS011;11445;53.816;8.902;2023-05-10T02:12:46;7.10;;;3.70;;
22557;SDS011;11445;53.816;8.902;2023-05-10T02:15:17;8.68;;;3.08;;
22557;SDS011;11445;53.816;8.902;2023-05-10T02:17:48;3.42;;;3.03;;
22557;SDS011;11445;53.816;8.902;2023-05-10T02:20:17;4.82;;;3.50;;
22557;SDS011;11445;53.816;8.902;2023-05-10T02:22:45;7.72;;;3.35;;
22557;SDS011;11445;53.816;8.902;2023-05-10T02:25:14;3.90;;;3.35;;
22557;SDS011;11445;53.816;8.902;2023-05-10T02:27:44;10.15;;;3.38;;
22557;SDS011;11445;53.816;8.902;2023-05-10T02:30:13;5.78;;;3.45;;
22557;SDS011;11445;53.816;8.902;2023-05-10T02:32:40;3.72;;;3.17;;
22557;SDS011;11445;53.816;8.902;2023-05-10T02:35:09;5.70;;;3.67;;
22557;SDS011;11445;53.816;8.902;2023-05-10T02:37:38;4.72;;;3.65;;
22557;SDS011;11445;53.816;8.902;2023-05-10T02:40:07;7.20;;;3.40;;
22557;SDS011;11445;53.816;8.902;2023-05-10T02:42:37;6.40;;;3.28;;
22557;SDS011;11445;53.816;8.902;2023-05-10T02:45:07;4.30;;;3.45;;
22557;SDS011;11445;53.816;8.902;2023-05-10T02:47:37;4.25;;;3.55;;
22557;SDS011;11445;53.816;8.902;2023-05-10T02:50:05;5.90;;;4.05;;
22557;SDS011;11445;53.816;8.902;2023-05-10T02:52:37;5.40;;;3.35;;
22557;SDS011;11445;53.816;8.902;2023-05-10T02:55:09;9.45;;;3.80;;
22557;SDS011;11445;53.816;8.902;2023-05-10T02:57:39;5.78;;;3.63;;
22557;SDS011;11445;53.816;8.902;2023-05-10T03:00:09;3.90;;;3.50;;
22557;SDS011;11445;53.816;8.902;2023-05-10T03:02:37;7.20;;;4.00;;
22557;SDS011;11445;53.816;8.902;2023-05-10T03:05:04;6.65;;;3.58;;
22557;SDS011;11445;53.816;8.902;2023-05-10T03:07:32;5.90;;;3.55;;
22557;SDS011;11445;53.816;8.902;2023-05-10T03:10:01;6.50;;;3.92;;
22557;SDS011;11445;53.816;8.902;2023-05-10T03:12:31;8.40;;;3.70;;
22557;SDS011;11445;53.816;8.902;2023-05-10T03:15:10;4.25;;;3.63;;
22557;SDS011;11445;53.816;8.902;2023-05-10T03:17:45;5.75;;;3.80;;
22557;SDS011;11445;53.816;8.902;2023-05-10T03:20:20;5.45;;;4.00;;
22557;SDS011;11445;53.816;8.902;2023-05-10T03:22:51;7.13;;;4.33;;
22557;SDS011;11445;53.816;8.902;2023-05-10T03:25:23;4.97;;;3.97;;
22557;SDS011;11445;53.816;8.902;2023-05-10T03:27:50;7.43;;;4.43;;
22557;SDS011;11445;53.816;8.902;2023-05-10T03:30:19;4.82;;;4.20;;
22557;SDS011;11445;53.816;8.902;2023-05-10T03:32:46;7.05;;;3.97;;
22557;SDS011;11445;53.816;8.902;2023-05-10T03:35:13;7.55;;;3.83;;
22557;SDS011;11445;53.816;8.902;2023-05-10T03:37:40;5.78;;;4.30;;
22557;SDS011;11445;53.816;8.902;2023-05-10T03:40:08;5.70;;;4.47;;
22557;SDS011;11445;53.816;8.902;2023-05-10T03:42:36;7.97;;;4.30;;
22557;SDS011;11445;53.816;8.902;2023-05-10T03:45:04;6.35;;;4.18;;
22557;SDS011;11445;53.816;8.902;2023-05-10T03:47:32;6.47;;;4.22;;
22557;SDS011;11445;53.816;8.902;2023-05-10T03:49:59;4.82;;;4.10;;
22557;SDS011;11445;53.816;8.902;2023-05-10T03:52:26;10.02;;;4.45;;
22557;SDS011;11445;53.816;8.902;2023-05-10T03:54:53;12.25;;;4.10;;
22557;SDS011;11445;53.816;8.902;2023-05-10T03:57:20;6.68;;;3.97;;
22557;SDS011;11445;53.816;8.902;2023-05-10T03:59:49;4.80;;;4.20;;
22557;SDS011;11445;53.816;8.902;2023-05-10T04:02:16;6.45;;;4.30;;
22557;SDS011;11445;53.816;8.902;2023-05-10T04:04:43;7.72;;;4.68;;
22557;SDS011;11445;53.816;8.902;2023-05-10T04:07:10;4.85;;;4.10;;
22557;SDS011;11445;53.816;8.902;2023-05-10T04:09:37;7.28;;;4.47;;
22557;SDS011;11445;53.816;8.902;2023-05-10T04:12:05;7.13;;;4.28;;
22557;SDS011;11445;53.816;8.902;2023-05-10T04:14:32;5.88;;;4.35;;
22557;SDS011;11445;53.816;8.902;2023-05-10T04:17:00;7.88;;;4.70;;
22557;SDS011;11445;53.816;8.902;2023-05-10T04:19:28;7.35;;;4.55;;
22557;SDS011;11445;53.816;8.902;2023-05-10T04:21:56;7.03;;;4.53;;
22557;SDS011;11445;53.816;8.902;2023-05-10T04:24:23;4.95;;;4.30;;
22557;SDS011;11445;53.816;8.902;2023-05-10T04:26:50;6.93;;;4.43;;
22557;SDS011;11445;53.816;8.902;2023-05-10T04:29:18;7.18;;;4.57;;
22557;SDS011;11445;53.816;8.902;2023-05-10T04:31:45;11.35;;;4.97;;
22557;SDS011;11445;53.816;8.902;2023-05-10T04:34:13;6.10;;;4.55;;
22557;SDS011;11445;53.816;8.902;2023-05-10T04:36:40;9.30;;;4.43;;
22557;SDS011;11445;53.816;8.902;2023-05-10T04:39:07;7.68;;;4.68;;
22557;SDS011;11445;53.816;8.902;2023-05-10T04:41:34;7.65;;;4.65;;
22557;SDS011;11445;53.816;8.902;2023-05-10T04:44:03;9.70;;;4.60;;
22557;SDS011;11445;53.816;8.902;2023-05-10T04:46:31;6.80;;;4.95;;
22557;SDS011;11445;53.816;8.902;2023-05-10T04:48:58;9.32;;;4.30;;
22557;SDS011;11445;53.816;8.902;2023-05-10T04:51:26;5.35;;;4.60;;
22557;SDS011;11445;53.816;8.902;2023-05-10T04:53:53;5.75;;;4.57;;
22557;SDS011;11445;53.816;8.902;2023-05-10T04:56:20;6.18;;;4.93;;
22557;SDS011;11445;53.816;8.902;2023-05-10T04:58:48;8.63;;;4.43;;
22557;SDS011;11445;53.816;8.902;2023-05-10T05:01:15;12.07;;;5.30;;
22557;SDS011;11445;53.816;8.902;2023-05-10T05:03:42;7.18;;;4.50;;
22557;SDS011;11445;53.816;8.902;2023-05-10T05:06:09;12.75;;;5.00;;
22557;SDS011;11445;53.816;8.902;2023-05-10T05:08:38;9.00;;;4.50;;
22557;SDS011;11445;53.816;8.902;2023-05-10T05:11:05;5.35;;;4.22;;
22557;SDS011;11445;53.816;8.902;2023-05-10T05:13:32;4.68;;;4.18;;
22557;SDS011;11445;53.816;8.902;2023-05-10T05:16:00;8.57;;;5.05;;
22557;SDS011;11445;53.816;8.902;2023-05-10T05:18:27;5.07;;;4.53;;
22557;SDS011;11445;53.816;8.902;2023-05-10T05:20:54;5.35;;;4.43;;
22557;SDS011;11445;53.816;8.902;2023-05-10T05:23:21;10.38;;;5.25;;
22557;SDS011;11445;53.816;8.902;2023-05-10T05:25:52;7.82;;;4.43;;
22557;SDS011;11445;53.816;8.902;2023-05-10T05:28:20;9.27;;;4.63;;
22557;SDS011;11445;53.816;8.902;2023-05-10T05:30:47;10.38;;;4.93;;
22557;SDS011;11445;53.816;8.902;2023-05-10T05:33:14;5.85;;;4.63;;
22557;SDS011;11445;53.816;8.902;2023-05-10T05:35:42;7.35;;;4.43;;
22557;SDS011;11445;53.816;8.902;2023-05-10T05:38:12;7.05;;;4.35;;
22557;SDS011;11445;53.816;8.902;2023-05-10T05:40:39;8.02;;;4.82;;
22557;SDS011;11445;53.816;8.902;2023-05-10T05:43:08;9.35;;;4.53;;
22557;SDS011;11445;53.816;8.902;2023-05-10T05:45:35;5.53;;;4.38;;
22557;SDS011;11445;53.816;8.902;2023-05-10T05:48:02;8.32;;;4.60;;
22557;SDS011;11445;53.816;8.902;2023-05-10T05:50:30;9.77;;;4.65;;
22557;SDS011;11445;53.816;8.902;2023-05-10T05:52:57;4.68;;;4.20;;
22557;SDS011;11445;53.816;8.902;2023-05-10T05:55:24;8.35;;;4.85;;
22557;SDS011;11445;53.816;8.902;2023-05-10T05:57:51;6.60;;;4.57;;
22557;SDS011;11445;53.816;8.902;2023-05-10T06:00:20;9.05;;;5.05;;
22557;SDS011;11445;53.816;8.902;2023-05-10T06:02:47;8.88;;;4.68;;
22557;SDS011;11445;53.816;8.902;2023-05-10T06:05:14;7.68;;;5.30;;
22557;SDS011;11445;53.816;8.902;2023-05-10T06:07:42;6.53;;;4.85;;
22557;SDS011;11445;53.816;8.902;2023-05-10T06:10:09;10.05;;;5.07;;
22557;SDS011;11445;53.816;8.902;2023-05-10T06:12:36;7.22;;;4.40;;
22557;SDS011;11445;53.816;8.902;2023-05-10T06:15:03;7.95;;;4.70;;
22557;SDS011;11445;53.816;8.902;2023-05-10T06:17:33;7.82;;;4.47;;
22557;SDS011;11445;53.816;8.902;2023-05-10T06:20:00;7.97;;;4.97;;
22557;SDS011;11445;53.816;8.902;2023-05-10T06:22:27;8.88;;;4.72;;
22557;SDS011;11445;53.816;8.902;2023-05-10T06:24:54;12.45;;;4.90;;
22557;SDS011;11445;53.816;8.902;2023-05-10T06:27:21;7.45;;;5.00;;
22557;SDS011;11445;53.816;8.902;2023-05-10T06:29:48;8.23;;;5.90;;
22557;SDS011;11445;53.816;8.902;2023-05-10T06:32:15;10.73;;;5.47;;
22557;SDS011;11445;53.816;8.902;2023-05-10T06:34:44;12.05;;;5.22;;
22557;SDS011;11445;53.816;8.902;2023-05-10T06:37:11;10.88;;;4.68;;
22557;SDS011;11445;53.816;8.902;2023-05-10T06:39:38;8.35;;;4.70;;
22557;SDS011;11445;53.816;8.902;2023-05-10T06:42:05;6.43;;;4.93;;
22557;SDS011;11445;53.816;8.902;2023-05-10T06:44:32;6.70;;;4.80;;
22557;SDS011;11445;53.816;8.902;2023-05-10T06:46:59;9.38;;;4.57;;
22557;SDS011;11445;53.816;8.902;2023-05-10T06:49:26;6.18;;;4.70;;
22557;SDS011;11445;53.816;8.902;2023-05-10T06:51:55;6.63;;;4.85;;
22557;SDS011;11445;53.816;8.902;2023-05-10T06:54:22;10.65;;;5.10;;
22557;SDS011;11445;53.816;8.902;2023-05-10T06:56:49;9.30;;;5.60;;
22557;SDS011;11445;53.816;8.902;2023-05-10T06:59:16;7.13;;;5.30;;
22557;SDS011;11445;53.816;8.902;2023-05-10T07:01:44;16.58;;;6.00;;
22557;SDS011;11445;53.816;8.902;2023-05-10T07:04:11;13.00;;;5.43;;
22557;SDS011;11445;53.816;8.902;2023-05-10T07:06:38;10.23;;;5.45;;
22557;SDS011;11445;53.816;8.902;2023-05-10T07:09:07;6.38;;;5.13;;
22557;SDS011;11445;53.816;8.902;2023-05-10T07:11:34;9.05;;;5.90;;
22557;SDS011;11445;53.816;8.902;2023-05-10T07:14:02;11.25;;;5.82;;
22557;SDS011;11445;53.816;8.902;2023-05-10T07:16:29;8.57;;;5.78;;
22557;SDS011;11445;53.816;8.902;2023-05-10T07:18:57;8.18;;;5.63;;
22557;SDS011;11445;53.816;8.902;2023-05-10T07:21:24;7.30;;;5.40;;
22557;SDS011;11445;53.816;8.902;2023-05-10T07:23:53;9.27;;;5.80;;
22557;SDS011;11445;53.816;8.902;2023-05-10T07:26:22;10.32;;;6.03;;
22557;SDS011;11445;53.816;8.902;2023-05-10T07:28:49;7.53;;;6.28;;
22557;SDS011;11445;53.816;8.902;2023-05-10T07:31:16;7.75;;;6.15;;
22557;SDS011;11445;53.816;8.902;2023-05-10T07:33:43;7.38;;;6.10;;
22557;SDS011;11445;53.816;8.902;2023-05-10T07:36:10;13.80;;;6.28;;
22557;SDS011;11445;53.816;8.902;2023-05-10T07:38:37;13.90;;;6.95;;
22557;SDS011;11445;53.816;8.902;2023-05-10T07:41:05;7.97;;;5.88;;
22557;SDS011;11445;53.816;8.902;2023-05-10T07:43:33;15.63;;;6.75;;
22557;SDS011;11445;53.816;8.902;2023-05-10T07:46:00;9.82;;;6.32;;
22557;SDS011;11445;53.816;8.902;2023-05-10T07:48:27;9.10;;;6.40;;
22557;SDS011;11445;53.816;8.902;2023-05-10T07:50:54;10.88;;;6.22;;
22557;SDS011;11445;53.816;8.902;2023-05-10T07:53:21;7.88;;;6.55;;
22557;SDS011;11445;53.816;8.902;2023-05-10T07:55:50;8.10;;;6.60;;
22557;SDS011;11445;53.816;8.902;2023-05-10T07:58:17;8.52;;;6.90;;
22557;SDS011;11445;53.816;8.902;2023-05-10T08:00:45;13.80;;;6.50;;
22557;SDS011;11445;53.816;8.902;2023-05-10T08:03:14;7.93;;;6.72;;
22557;SDS011;11445;53.816;8.902;2023-05-10T08:05:41;12.40;;;6.75;;
22557;SDS011;11445;53.816;8.902;2023-05-10T08:08:08;9.00;;;7.40;;
22557;SDS011;11445;53.816;8.902;2023-05-10T08:10:35;12.95;;;7.45;;
22557;SDS011;11445;53.816;8.902;2023-05-10T08:13:02;9.82;;;6.68;;
22557;SDS011;11445;53.816;8.902;2023-05-10T08:15:29;13.65;;;7.32;;
22557;SDS011;11445;53.816;8.902;2023-05-10T08:17:58;13.50;;;7.65;;
22557;SDS011;11445;53.816;8.902;2023-05-10T08:20:25;8.20;;;7.28;;
22557;SDS011;11445;53.816;8.902;2023-05-10T08:22:52;9.63;;;8.23;;
22557;SDS011;11445;53.816;8.902;2023-05-10T08:25:19;12.45;;;7.88;;
22557;SDS011;11445;53.816;8.902;2023-05-10T08:27:46;11.07;;;7.90;;
22557;SDS011;11445;53.816;8.902;2023-05-10T08:30:13;12.00;;;8.07;;
22557;SDS011;11445;53.816;8.902;2023-05-10T08:32:40;9.48;;;7.95;;
22557;SDS011;11445;53.816;8.902;2023-05-10T08:35:09;13.40;;;8.77;;
22557;SDS011;11445;53.816;8.902;2023-05-10T08:37:36;12.15;;;9.00;;
22557;SDS011;11445;53.816;8.902;2023-05-10T08:40:03;10.45;;;8.88;;
22557;SDS011;11445;53.816;8.902;2023-05-10T08:42:31;12.32;;;9.23;;
22557;SDS011;11445;53.816;8.902;2023-05-10T08:45:03;17.00;;;8.60;;
22557;SDS011;11445;53.816;8.902;2023-05-10T08:47:33;10.93;;;8.93;;
22557;SDS011;11445;53.816;8.902;2023-05-10T08:50:01;11.35;;;9.05;;
22557;SDS011;11445;53.816;8.902;2023-05-10T08:52:31;10.85;;;9.30;;
22557;SDS011;11445;53.816;8.902;2023-05-10T08:55:04;14.68;;;9.18;;
22557;SDS011;11445;53.816;8.902;2023-05-10T08:57:31;16.38;;;9.65;;
22557;SDS011;11445;53.816;8.902;2023-05-10T08:59:58;14.77;;;10.02;;
22557;SDS011;11445;53.816;8.902;2023-05-10T09:02:27;17.83;;;9.68;;
22557;SDS011;11445;53.816;8.902;2023-05-10T09:04:54;12.20;;;9.63;;
22557;SDS011;11445;53.816;8.902;2023-05-10T09:07:21;12.85;;;9.90;;
22557;SDS011;11445;53.816;8.902;2023-05-10T09:09:50;14.23;;;10.48;;
22557;SDS011;11445;53.816;8.902;2023-05-10T09:12:18;11.57;;;9.63;;
22557;SDS011;11445;53.816;8.902;2023-05-10T09:14:45;15.35;;;10.90;;
22557;SDS011;11445;53.816;8.902;2023-05-10T09:17:12;14.73;;;10.45;;
22557;SDS011;11445;53.816;8.902;2023-05-10T09:19:40;14.35;;;10.50;;
22557;SDS011;11445;53.816;8.902;2023-05-10T09:22:07;16.15;;;11.20;;
22557;SDS011;11445;53.816;8.902;2023-05-10T09:24:34;15.75;;;11.30;;
22557;SDS011;11445;53.816;8.902;2023-05-10T09:27:03;16.15;;;10.57;;
22557;SDS011;11445;53.816;8.902;2023-05-10T09:29:38;14.20;;;10.82;;
22557;SDS011;11445;53.816;8.902;2023-05-10T09:32:05;13.65;;;11.60;;
22557;SDS011;11445;53.816;8.902;2023-05-10T09:34:33;19.60;;;11.88;;
22557;SDS011;11445;53.816;8.902;2023-05-10T09:37:04;16.92;;;11.85;;
22557;SDS011;11445;53.816;8.902;2023-05-10T09:39:33;17.90;;;11.73;;
22557;SDS011;11445;53.816;8.902;2023-05-10T09:42:03;15.52;;;11.75;;
22557;SDS011;11445;53.816;8.902;2023-05-10T09:44:32;17.33;;;11.88;;
22557;SDS011;11445;53.816;8.902;2023-05-10T09:47:00;14.98;;;12.10;;
22557;SDS011;11445;53.816;8.902;2023-05-10T09:49:27;18.98;;;11.70;;
22557;SDS011;11445;53.816;8.902;2023-05-10T09:52:01;16.50;;;11.68;;
22557;SDS011;11445;53.816;8.902;2023-05-10T09:54:29;15.30;;;11.88;;
22557;SDS011;11445;53.816;8.902;2023-05-10T09:56:56;15.38;;;11.55;;
22557;SDS011;11445;53.816;8.902;2023-05-10T09:59:26;16.42;;;11.75;;
22557;SDS011;11445;53.816;8.902;2023-05-10T10:01:55;16.77;;;12.00;;
22557;SDS011;11445;53.816;8.902;2023-05-10T10:04:23;16.05;;;12.38;;
22557;SDS011;11445;53.816;8.902;2023-05-10T10:07:00;14.60;;;11.73;;
22557;SDS011;11445;53.816;8.902;2023-05-10T10:09:28;14.13;;;12.05;;
22557;SDS011;11445;53.816;8.902;2023-05-10T10:11:55;16.17;;;12.02;;
22557;SDS011;11445;53.816;8.902;2023-05-10T10:14:23;14.85;;;11.75;;
22557;SDS011;11445;53.816;8.902;2023-05-10T10:16:51;15.25;;;11.70;;
22557;SDS011;11445;53.816;8.902;2023-05-10T10:19:19;13.45;;;10.32;;
22557;SDS011;11445;53.816;8.902;2023-05-10T10:21:46;16.10;;;11.05;;
22557;SDS011;11445;53.816;8.902;2023-05-10T10:24:13;18.27;;;12.18;;
22557;SDS011;11445;53.816;8.902;2023-05-10T10:26:40;15.15;;;11.45;;
22557;SDS011;11445;53.816;8.902;2023-05-10T10:29:11;17.63;;;11.77;;
22557;SDS011;11445;53.816;8.902;2023-05-10T10:31:48;16.25;;;12.40;;
22557;SDS011;11445;53.816;8.902;2023-05-10T10:34:25;15.07;;;12.32;;
22557;SDS011;11445;53.816;8.902;2023-05-10T10:36:54;15.52;;;12.25;;
22557;SDS011;11445;53.816;8.902;2023-05-10T10:39:22;16.10;;;12.82;;
22557;SDS011;11445;53.816;8.902;2023-05-10T10:41:51;17.20;;;13.05;;
22557;SDS011;11445;53.816;8.902;2023-05-10T10:44:22;16.15;;;12.95;;
22557;SDS011;11445;53.816;8.902;2023-05-10T10:47:02;15.48;;;12.70;;
22557;SDS011;11445;53.816;8.902;2023-05-10T10:49:42;17.67;;;12.82;;
22557;SDS011;11445;53.816;8.902;2023-05-10T10:52:15;18.25;;;13.70;;
22557;SDS011;11445;53.816;8.902;2023-05-10T10:54:49;18.30;;;13.68;;
22557;SDS011;11445;53.816;8.902;2023-05-10T10:57:19;16.48;;;12.93;;
22557;SDS011;11445;53.816;8.902;2023-05-10T10:59:47;16.45;;;13.38;;
22557;SDS011;11445;53.816;8.902;2023-05-10T11:02:36;21.20;;;13.27;;
22557;SDS011;11445;53.816;8.902;2023-05-10T11:08:15;19.55;;;14.00;;
22557;SDS011;11445;53.816;8.902;2023-05-10T11:10:51;18.55;;;14.35;;
22557;SDS011;11445;53.816;8.902;2023-05-10T11:13:34;17.42;;;14.20;;
22557;SDS011;11445;53.816;8.902;2023-05-10T11:16:14;17.88;;;14.02;;
22557;SDS011;11445;53.816;8.902;2023-05-10T11:18:54;17.08;;;14.07;;
22557;SDS011;11445;53.816;8.902;2023-05-10T11:21:25;18.50;;;14.20;;
22557;SDS011;11445;53.816;8.902;2023-05-10T11:23:52;16.65;;;14.27;;
22557;SDS011;11445;53.816;8.902;2023-05-10T11:26:22;17.05;;;13.75;;
22557;SDS011;11445;53.816;8.902;2023-05-10T11:28:51;17.30;;;14.23;;
22557;SDS011;11445;53.816;8.902;2023-05-10T11:31:20;18.73;;;14.98;;
22557;SDS011;11445;53.816;8.902;2023-05-10T11:33:48;19.50;;;14.57;;
22557;SDS011;11445;53.816;8.902;2023-05-10T11:36:19;18.77;;;15.02;;
22557;SDS011;11445;53.816;8.902;2023-05-10T11:38:47;16.42;;;13.77;;
22557;SDS011;11445;53.816;8.902;2023-05-10T11:41:15;16.50;;;13.40;;
22557;SDS011;11445;53.816;8.902;2023-05-10T11:43:45;14.75;;;12.52;;
22557;SDS011;11445;53.816;8.902;2023-05-10T11:46:14;13.00;;;11.38;;
22557;SDS011;11445;53.816;8.902;2023-05-10T11:48:42;15.32;;;12.48;;
22557;SDS011;11445;53.816;8.902;2023-05-10T11:51:09;16.23;;;13.45;;
22557;SDS011;11445;53.816;8.902;2023-05-10T11:53:38;18.55;;;14.25;;
22557;SDS011;11445;53.816;8.902;2023-05-10T11:56:05;15.60;;;13.32;;
22557;SDS011;11445;53.816;8.902;2023-05-10T11:58:34;16.05;;;12.80;;
22557;SDS011;11445;53.816;8.902;2023-05-10T12:01:01;14.82;;;12.38;;
22557;SDS011;11445;53.816;8.902;2023-05-10T12:03:29;16.23;;;12.38;;
22557;SDS011;11445;53.816;8.902;2023-05-10T12:05:58;16.23;;;11.55;;
22557;SDS011;11445;53.816;8.902;2023-05-10T12:08:26;13.13;;;11.13;;
22557;SDS011;11445;53.816;8.902;2023-05-10T12:11:05;12.27;;;10.45;;
22557;SDS011;11445;53.816;8.902;2023-05-10T12:13:37;12.00;;;10.43;;
22557;SDS011;11445;53.816;8.902;2023-05-10T12:16:15;11.85;;;10.20;;
22557;SDS011;11445;53.816;8.902;2023-05-10T12:18:43;11.30;;;10.10;;
22557;SDS011;11445;53.816;8.902;2023-05-10T12:21:10;12.80;;;9.98;;
22557;SDS011;11445;53.816;8.902;2023-05-10T12:23:37;11.35;;;9.38;;
22557;SDS011;11445;53.816;8.902;2023-05-10T12:26:07;11.48;;;9.70;;
22557;SDS011;11445;53.816;8.902;2023-05-10T12:28:36;10.95;;;9.05;;
22557;SDS011;11445;53.816;8.902;2023-05-10T12:31:04;10.70;;;8.75;;
22557;SDS011;11445;53.816;8.902;2023-05-10T12:33:36;12.45;;;9.52;;
22557;SDS011;11445;53.816;8.902;2023-05-10T12:36:06;9.82;;;8.82;;
22557;SDS011;11445;53.816;8.902;2023-05-10T12:38:34;12.05;;;9.60;;
22557;SDS011;11445;53.816;8.902;2023-05-10T12:41:04;11.32;;;9.07;;
22557;SDS011;11445;53.816;8.902;2023-05-10T12:43:33;11.30;;;9.48;;
22557;SDS011;11445;53.816;8.902;2023-05-10T12:46:05;11.75;;;9.20;;
22557;SDS011;11445;53.816;8.902;2023-05-10T12:48:32;11.57;;;9.30;;
22557;SDS011;11445;53.816;8.902;2023-05-10T12:51:00;12.98;;;11.63;;
22557;SDS011;11445;53.816;8.902;2023-05-10T12:53:27;14.10;;;12.60;;
22557;SDS011;11445;53.816;8.902;2023-05-10T12:55:54;13.75;;;12.30;;
22557;SDS011;11445;53.816;8.902;2023-05-10T12:58:21;15.30;;;12.88;;
22557;SDS011;11445;53.816;8.902;2023-05-10T13:00:50;12.70;;;11.40;;
22557;SDS011;11445;53.816;8.902;2023-05-10T13:03:17;18.45;;;9.38;;
22557;SDS011;11445;53.816;8.902;2023-05-10T13:05:45;12.73;;;11.00;;
22557;SDS011;11445;53.816;8.902;2023-05-10T13:08:12;13.20;;;11.35;;
22557;SDS011;11445;53.816;8.902;2023-05-10T13:10:39;11.90;;;10.70;;
22557;SDS011;11445;53.816;8.902;2023-05-10T13:13:06;12.85;;;11.32;;
22557;SDS011;11445;53.816;8.902;2023-05-10T13:15:33;14.55;;;11.88;;
22557;SDS011;11445;53.816;8.902;2023-05-10T13:18:02;15.23;;;12.82;;
22557;SDS011;11445;53.816;8.902;2023-05-10T13:20:29;13.57;;;11.95;;
22557;SDS011;11445;53.816;8.902;2023-05-10T13:22:56;14.80;;;11.80;;
22557;SDS011;11445;53.816;8.902;2023-05-10T13:25:23;14.75;;;12.90;;
22557;SDS011;11445;53.816;8.902;2023-05-10T13:27:50;15.32;;;12.70;;
22557;SDS011;11445;53.816;8.902;2023-05-10T13:30:17;13.98;;;12.10;;
22557;SDS011;11445;53.816;8.902;2023-05-10T13:32:45;16.52;;;12.52;;
22557;SDS011;11445;53.816;8.902;2023-05-10T13:35:14;15.23;;;12.05;;
22557;SDS011;11445;53.816;8.902;2023-05-10T13:37:41;13.73;;;12.23;;
22557;SDS011;11445;53.816;8.902;2023-05-10T13:40:08;15.48;;;12.40;;
22557;SDS011;11445;53.816;8.902;2023-05-10T13:42:35;15.65;;;11.63;;
22557;SDS011;11445;53.816;8.902;2023-05-10T13:45:03;15.73;;;11.70;;
22557;SDS011;11445;53.816;8.902;2023-05-10T13:47:30;15.48;;;13.10;;
22557;SDS011;11445;53.816;8.902;2023-05-10T13:49:57;15.27;;;12.45;;
22557;SDS011;11445;53.816;8.902;2023-05-10T13:52:27;15.05;;;12.45;;
22557;SDS011;11445;53.816;8.902;2023-05-10T13:54:54;15.27;;;11.70;;
22557;SDS011;11445;53.816;8.902;2023-05-10T13:57:21;13.88;;;11.07;;
22557;SDS011;11445;53.816;8.902;2023-05-10T13:59:49;14.50;;;11.32;;
22557;SDS011;11445;53.816;8.902;2023-05-10T14:02:16;12.25;;;10.43;;
22557;SDS011;11445;53.816;8.902;2023-05-10T14:04:43;12.10;;;9.98;;
22557;SDS011;11445;53.816;8.902;2023-05-10T14:07:10;12.48;;;9.98;;
22557;SDS011;11445;53.816;8.902;2023-05-10T14:09:38;12.40;;;10.38;;
22557;SDS011;11445;53.816;8.902;2023-05-10T14:12:05;12.30;;;10.38;;
22557;SDS011;11445;53.816;8.902;2023-05-10T14:14:33;15.98;;;11.57;;
22557;SDS011;11445;53.816;8.902;2023-05-10T14:17:00;13.57;;;11.05;;
22557;SDS011;11445;53.816;8.902;2023-05-10T14:19:27;12.15;;;10.52;;
22557;SDS011;11445;53.816;8.902;2023-05-10T14:21:57;14.60;;;11.38;;
22557;SDS011;11445;53.816;8.902;2023-05-10T14:24:24;13.48;;;10.85;;
22557;SDS011;11445;53.816;8.902;2023-05-10T14:26:52;13.75;;;10.35;;
22557;SDS011;11445;53.816;8.902;2023-05-10T14:29:20;13.45;;;10.63;;
22557;SDS011;11445;53.816;8.902;2023-05-10T14:31:47;12.40;;;10.07;;
22557;SDS011;11445;53.816;8.902;2023-05-10T14:34:14;12.32;;;10.15;;
22557;SDS011;11445;53.816;8.902;2023-05-10T14:36:41;13.48;;;11.20;;
22557;SDS011;11445;53.816;8.902;2023-05-10T14:39:08;13.48;;;10.70;;
22557;SDS011;11445;53.816;8.902;2023-05-10T14:41:37;14.48;;;10.68;;
22557;SDS011;11445;53.816;8.902;2023-05-10T14:44:07;12.27;;;10.40;;
22557;SDS011;11445;53.816;8.902;2023-05-10T14:46:35;11.25;;;8.93;;
22557;SDS011;11445;53.816;8.902;2023-05-10T14:49:02;11.07;;;9.38;;
22557;SDS011;11445;53.816;8.902;2023-05-10T14:51:29;10.55;;;8.13;;
22557;SDS011;11445;53.816;8.902;2023-05-10T14:53:56;12.90;;;9.10;;